createdAt,value
2022-11-01T00:00:10.545Z,22.62
2022-11-01T00:01:04.169Z,22.67
2022-11-01T00:01:58.813Z,22.67
2022-11-01T00:02:52.450Z,22.58
2022-11-01T00:03:46.990Z,22.58
2022-11-01T00:04:41.750Z,22.64
2022-11-01T00:05:35.546Z,22.61
2022-11-01T00:06:29.281Z,22.55
2022-11-01T00:07:23.942Z,22.64
2022-11-01T00:08:17.762Z,22.64
2022-11-01T00:09:11.486Z,22.62
2022-11-01T00:10:05.354Z,22.64
2022-11-01T00:10:59.052Z,22.67
2022-11-01T00:11:52.963Z,22.66
2022-11-01T00:12:47.511Z,22.59
2022-11-01T00:13:43.091Z,22.55
2022-11-01T00:14:36.896Z,22.56
2022-11-01T00:15:31.477Z,22.62
2022-11-01T00:16:25.175Z,22.59
2022-11-01T00:17:19.831Z,22.66
2022-11-01T00:18:14.363Z,22.61
2022-11-01T00:19:08.214Z,22.59
2022-11-01T00:20:01.939Z,22.67
2022-11-01T00:20:56.457Z,22.62
2022-11-01T00:21:50.290Z,22.64
2022-11-01T00:22:33.997Z,22.64
2022-11-01T00:23:28.633Z,22.62
2022-11-01T00:24:23.279Z,22.62
2022-11-01T00:25:17.842Z,22.56
2022-11-01T00:26:11.437Z,22.61
2022-11-01T00:27:06.004Z,22.58
2022-11-01T00:28:00.856Z,22.53
2022-11-01T00:28:44.234Z,22.56
2022-11-01T00:29:38.875Z,22.53
2022-11-01T00:30:33.470Z,22.53
2022-11-01T00:31:27.158Z,22.59
2022-11-01T00:32:20.772Z,22.55
2022-11-01T00:33:14.499Z,22.59
2022-11-01T00:34:08.111Z,22.58
2022-11-01T00:35:02.779Z,22.56
2022-11-01T00:35:57.408Z,22.56
2022-11-01T00:36:51.231Z,22.55
2022-11-01T00:37:45.801Z,22.58
2022-11-01T00:38:41.354Z,22.55
2022-11-01T00:39:35.066Z,22.58
2022-11-01T00:40:28.804Z,22.56
2022-11-01T00:41:23.358Z,22.56
2022-11-01T00:42:17.175Z,22.55
2022-11-01T00:43:10.852Z,22.59
2022-11-01T00:44:05.334Z,22.61
2022-11-01T00:45:00.874Z,22.61
2022-11-01T00:45:54.631Z,22.58
2022-11-01T00:46:48.369Z,22.56
2022-11-01T00:47:41.978Z,22.56
2022-11-01T00:48:36.626Z,22.59
2022-11-01T00:49:31.269Z,22.58
2022-11-01T00:50:24.996Z,22.58
2022-11-01T00:51:18.718Z,22.55
2022-11-01T00:52:12.447Z,22.62
2022-11-01T00:53:07.107Z,22.53
2022-11-01T00:54:01.639Z,22.55
2022-11-01T00:54:56.287Z,22.56
2022-11-01T00:55:50.504Z,22.53
2022-11-01T00:56:45.261Z,22.52
2022-11-01T00:57:39.826Z,22.58
2022-11-01T00:58:34.448Z,22.58
2022-11-01T00:59:29.120Z,22.59
2022-11-01T01:00:24.675Z,22.56
2022-11-01T01:01:19.495Z,22.52
2022-11-01T01:02:14.191Z,22.55
2022-11-01T01:03:08.827Z,22.55
2022-11-01T01:04:02.442Z,22.55
2022-11-01T01:04:57.085Z,22.59
2022-11-01T01:05:50.813Z,22.55
2022-11-01T01:06:45.559Z,22.51
2022-11-01T01:07:40.211Z,22.51
2022-11-01T01:08:34.041Z,22.55
2022-11-01T01:09:28.686Z,22.56
2022-11-01T01:10:22.413Z,22.48
2022-11-01T01:11:16.130Z,22.62
2022-11-01T01:12:09.748Z,22.58
2022-11-01T01:13:04.871Z,22.59
2022-11-01T01:13:59.550Z,22.51
2022-11-01T01:14:55.104Z,22.52
2022-11-01T01:15:48.850Z,22.53
2022-11-01T01:17:37.317Z,22.55
2022-11-01T01:18:31.151Z,22.59
2022-11-01T01:19:24.817Z,22.58
2022-11-01T01:20:19.423Z,22.59
2022-11-01T01:21:13.049Z,22.51
2022-11-01T01:22:07.809Z,22.53
2022-11-01T01:23:03.357Z,22.52
2022-11-01T01:23:57.209Z,22.56
2022-11-01T01:24:51.064Z,22.53
2022-11-01T01:25:45.776Z,22.55
2022-11-01T01:26:40.511Z,22.52
2022-11-01T01:27:34.246Z,22.56
2022-11-01T01:28:27.962Z,22.55
2022-11-01T01:29:22.512Z,22.56
2022-11-01T01:30:17.067Z,22.52
2022-11-01T01:31:11.613Z,22.51
2022-11-01T01:32:05.319Z,22.53
2022-11-01T01:32:59.245Z,22.58
2022-11-01T01:33:52.876Z,22.52
2022-11-01T01:34:46.601Z,22.51
2022-11-01T01:35:40.337Z,22.43
2022-11-01T01:36:34.973Z,22.53
2022-11-01T01:37:29.508Z,22.55
2022-11-01T01:38:23.235Z,22.55
2022-11-01T01:39:17.906Z,22.52
2022-11-01T01:40:12.530Z,22.52
2022-11-01T01:41:06.265Z,22.53
2022-11-01T01:41:50.059Z,22.51
2022-11-01T01:42:45.596Z,22.53
2022-11-01T01:43:40.262Z,22.53
2022-11-01T01:44:34.822Z,22.56
2022-11-01T01:45:28.437Z,22.55
2022-11-01T01:46:23.987Z,22.56
2022-11-01T01:47:17.630Z,22.52
2022-11-01T01:48:12.183Z,22.56
2022-11-01T01:49:05.917Z,22.52
2022-11-01T01:50:00.580Z,22.51
2022-11-01T01:50:54.375Z,22.44
2022-11-01T01:51:48.103Z,22.53
2022-11-01T01:52:42.740Z,22.51
2022-11-01T01:53:36.290Z,22.48
2022-11-01T01:54:30.937Z,22.56
2022-11-01T01:55:26.165Z,22.58
2022-11-01T01:56:20.813Z,22.53
2022-11-01T01:57:15.570Z,22.55
2022-11-01T01:58:10.118Z,22.51
2022-11-01T01:59:03.737Z,22.48
2022-11-01T01:59:57.663Z,22.41
2022-11-01T02:00:52.251Z,22.48
2022-11-01T02:01:46.983Z,22.52
2022-11-01T02:02:40.496Z,22.43
2022-11-01T02:03:34.195Z,22.43
2022-11-01T02:04:28.754Z,22.44
2022-11-01T02:05:22.468Z,22.56
2022-11-01T02:06:17.086Z,22.46
2022-11-01T02:07:12.575Z,22.52
2022-11-01T02:08:07.119Z,22.55
2022-11-01T02:09:02.667Z,22.48
2022-11-01T02:09:57.276Z,22.51
2022-11-01T02:10:51.887Z,22.44
2022-11-01T02:11:46.535Z,22.49
2022-11-01T02:12:40.266Z,22.52
2022-11-01T02:13:35.807Z,22.53
2022-11-01T02:14:44.580Z,22.48
2022-11-01T02:15:38.317Z,22.53
2022-11-01T02:16:32.965Z,22.55
2022-11-01T02:17:27.759Z,22.52
2022-11-01T02:18:22.464Z,22.48
2022-11-01T02:19:18.016Z,22.51
2022-11-01T02:20:12.686Z,22.44
2022-11-01T02:21:06.554Z,22.43
2022-11-01T02:22:01.254Z,22.49
2022-11-01T02:22:55.818Z,22.44
2022-11-01T02:23:51.374Z,22.43
2022-11-01T02:24:46.002Z,22.44
2022-11-01T02:25:39.642Z,22.58
2022-11-01T02:26:34.265Z,22.44
2022-11-01T02:27:28.100Z,22.48
2022-11-01T02:28:21.842Z,22.43
2022-11-01T02:29:16.472Z,22.53
2022-11-01T02:30:11.120Z,22.48
2022-11-01T02:31:04.738Z,22.46
2022-11-01T02:31:58.575Z,22.44
2022-11-01T02:32:52.200Z,22.52
2022-11-01T02:33:47.008Z,22.46
2022-11-01T02:34:40.655Z,22.51
2022-11-01T02:35:36.203Z,22.46
2022-11-01T02:36:30.782Z,22.43
2022-11-01T02:37:24.507Z,22.56
2022-11-01T02:38:19.069Z,22.52
2022-11-01T02:40:06.295Z,22.48
2022-11-01T02:41:01.068Z,22.48
2022-11-01T02:41:54.755Z,22.41
2022-11-01T02:42:49.314Z,22.44
2022-11-01T02:43:43.961Z,22.46
2022-11-01T02:44:37.797Z,22.43
2022-11-01T02:45:32.454Z,22.44
2022-11-01T02:46:26.160Z,22.41
2022-11-01T02:47:19.879Z,22.44
2022-11-01T02:48:13.619Z,22.43
2022-11-01T02:49:08.167Z,22.52
2022-11-01T02:50:02.829Z,22.44
2022-11-01T02:50:57.431Z,22.43
2022-11-01T02:51:51.170Z,22.43
2022-11-01T02:52:45.011Z,22.44
2022-11-01T02:53:39.651Z,22.46
2022-11-01T02:54:34.306Z,22.40
2022-11-01T02:55:28.073Z,22.46
2022-11-01T02:56:21.851Z,22.55
2022-11-01T02:57:16.490Z,22.40
2022-11-01T02:58:10.414Z,22.44
2022-11-01T02:59:04.966Z,22.48
2022-11-01T02:59:58.789Z,22.46
2022-11-01T03:00:53.422Z,22.40
2022-11-01T03:01:48.120Z,22.41
2022-11-01T03:02:41.749Z,22.41
2022-11-01T03:03:36.354Z,22.40
2022-11-01T03:04:30.082Z,22.38
2022-11-01T03:05:24.011Z,22.43
2022-11-01T03:06:17.732Z,22.44
2022-11-01T03:07:12.275Z,22.40
2022-11-01T03:08:06.002Z,22.43
2022-11-01T03:08:59.617Z,22.43
2022-11-01T03:09:53.452Z,22.46
2022-11-01T03:10:48.113Z,22.46
2022-11-01T03:11:31.891Z,22.48
2022-11-01T03:12:27.042Z,22.40
2022-11-01T03:13:21.798Z,22.49
2022-11-01T03:14:16.470Z,22.53
2022-11-01T03:15:11.223Z,22.53
2022-11-01T03:16:04.931Z,22.46
2022-11-01T03:16:59.571Z,22.46
2022-11-01T03:17:53.190Z,22.41
2022-11-01T03:18:47.831Z,22.40
2022-11-01T03:19:42.579Z,22.44
2022-11-01T03:20:36.445Z,22.48
2022-11-01T03:21:31.055Z,22.43
2022-11-01T03:22:25.603Z,22.36
2022-11-01T03:23:19.437Z,22.40
2022-11-01T03:24:13.364Z,22.44
2022-11-01T03:25:07.094Z,22.40
2022-11-01T03:25:50.775Z,22.41
2022-11-01T03:26:44.426Z,22.52
2022-11-01T03:27:38.135Z,22.37
2022-11-01T03:28:32.679Z,22.41
2022-11-01T03:29:26.391Z,22.41
2022-11-01T03:30:20.137Z,22.41
2022-11-01T03:31:13.858Z,22.41
2022-11-01T03:32:09.487Z,22.46
2022-11-01T03:33:05.415Z,22.52
2022-11-01T03:33:58.710Z,22.41
2022-11-01T03:34:54.258Z,22.38
2022-11-01T03:35:47.999Z,22.51
2022-11-01T03:36:42.760Z,22.38
2022-11-01T03:37:37.319Z,22.41
2022-11-01T03:38:31.129Z,22.38
2022-11-01T03:39:24.781Z,22.44
2022-11-01T03:40:18.479Z,22.43
2022-11-01T03:41:13.030Z,22.38
2022-11-01T03:42:06.674Z,22.48
2022-11-01T03:43:01.663Z,22.43
2022-11-01T03:43:55.925Z,22.40
2022-11-01T03:44:50.515Z,22.38
2022-11-01T03:45:45.137Z,22.44
2022-11-01T03:46:38.956Z,22.52
2022-11-01T03:47:33.515Z,22.51
2022-11-01T03:48:28.146Z,22.44
2022-11-01T03:49:21.760Z,22.41
2022-11-01T03:50:16.434Z,22.41
2022-11-01T03:51:11.961Z,22.41
2022-11-01T03:52:05.601Z,22.41
2022-11-01T03:52:59.223Z,22.41
2022-11-01T03:53:53.894Z,22.44
2022-11-01T03:54:47.592Z,22.44
2022-11-01T03:55:42.230Z,22.44
2022-11-01T03:56:35.857Z,22.40
2022-11-01T03:57:39.963Z,22.41
2022-11-01T03:58:34.472Z,22.41
2022-11-01T03:59:29.034Z,22.46
2022-11-01T04:00:22.637Z,22.43
2022-11-01T04:01:17.350Z,22.40
2022-11-01T04:02:12.343Z,22.46
2022-11-01T04:03:12.413Z,22.44
2022-11-01T04:04:05.942Z,22.41
2022-11-01T04:04:59.475Z,22.44
2022-11-01T04:05:53.011Z,22.44
2022-11-01T04:06:46.552Z,22.48
2022-11-01T04:07:40.087Z,22.49
2022-11-01T04:08:33.645Z,22.36
2022-11-01T04:09:27.166Z,22.38
2022-11-01T04:10:20.706Z,22.41
2022-11-01T04:11:14.247Z,22.41
2022-11-01T04:12:07.805Z,22.43
2022-11-01T04:13:01.906Z,22.40
2022-11-01T04:13:54.883Z,22.41
2022-11-01T04:14:48.417Z,22.34
2022-11-01T04:15:41.952Z,22.43
2022-11-01T04:16:35.474Z,22.41
2022-11-01T04:17:29.007Z,22.40
2022-11-01T04:18:22.564Z,22.41
2022-11-01T04:19:16.102Z,22.43
2022-11-01T04:20:09.642Z,22.36
2022-11-01T04:21:03.311Z,22.40
2022-11-01T04:21:56.937Z,22.44
2022-11-01T04:22:50.566Z,22.44
2022-11-01T04:23:44.193Z,22.41
2022-11-01T04:24:27.866Z,22.40
2022-11-01T04:25:21.503Z,22.41
2022-11-01T04:26:15.149Z,22.44
2022-11-01T04:27:08.748Z,22.43
2022-11-01T04:28:02.297Z,22.37
2022-11-01T04:28:55.842Z,22.44
2022-11-01T04:29:49.359Z,22.38
2022-11-01T04:30:42.880Z,22.44
2022-11-01T04:31:36.404Z,22.31
2022-11-01T04:32:29.937Z,22.38
2022-11-01T04:33:23.460Z,22.44
2022-11-01T04:34:16.989Z,22.33
2022-11-01T04:35:10.532Z,22.36
2022-11-01T04:36:04.040Z,22.36
2022-11-01T04:36:57.579Z,22.33
2022-11-01T04:37:51.117Z,22.43
2022-11-01T04:38:44.648Z,22.44
2022-11-01T04:39:38.194Z,22.36
2022-11-01T04:40:31.732Z,22.48
2022-11-01T04:41:25.262Z,22.38
2022-11-01T04:42:18.797Z,22.41
2022-11-01T04:43:12.365Z,22.33
2022-11-01T04:44:05.902Z,22.40
2022-11-01T04:44:59.427Z,22.40
2022-11-01T04:45:52.962Z,22.41
2022-11-01T04:46:46.493Z,22.41
2022-11-01T04:47:40.025Z,22.51
2022-11-01T04:48:33.574Z,22.44
2022-11-01T04:49:27.102Z,22.43
2022-11-01T04:50:20.658Z,22.43
2022-11-01T04:51:14.210Z,22.49
2022-11-01T04:52:07.739Z,22.40
2022-11-01T04:53:01.726Z,22.38
2022-11-01T04:53:54.803Z,22.46
2022-11-01T04:54:48.332Z,22.46
2022-11-01T04:55:41.869Z,22.43
2022-11-01T04:56:35.403Z,22.43
2022-11-01T04:57:28.936Z,22.43
2022-11-01T04:58:22.461Z,22.43
2022-11-01T04:59:16.001Z,22.43
2022-11-01T05:00:09.525Z,22.40
2022-11-01T05:01:03.099Z,22.43
2022-11-01T05:01:56.657Z,22.51
2022-11-01T05:02:50.121Z,22.41
2022-11-01T05:03:43.666Z,22.43
2022-11-01T05:04:37.204Z,22.51
2022-11-01T05:05:30.759Z,22.41
2022-11-01T05:06:24.293Z,22.41
2022-11-01T05:07:17.828Z,22.40
2022-11-01T05:08:11.364Z,22.44
2022-11-01T05:09:04.896Z,22.41
2022-11-01T05:09:58.438Z,22.36
2022-11-01T05:10:51.968Z,22.40
2022-11-01T05:11:45.504Z,22.44
2022-11-01T05:12:49.304Z,22.34
2022-11-01T05:13:42.842Z,22.46
2022-11-01T05:14:36.393Z,22.43
2022-11-01T05:15:29.910Z,22.46
2022-11-01T05:16:23.449Z,22.44
2022-11-01T05:17:07.119Z,22.37
2022-11-01T05:18:00.645Z,22.41
2022-11-01T05:18:54.179Z,22.46
2022-11-01T05:19:47.725Z,22.48
2022-11-01T05:20:41.260Z,22.40
2022-11-01T05:21:34.801Z,22.46
2022-11-01T05:22:28.329Z,22.44
2022-11-01T05:23:21.867Z,22.43
2022-11-01T05:24:15.426Z,22.43
2022-11-01T05:25:08.929Z,22.49
2022-11-01T05:26:02.466Z,22.41
2022-11-01T05:26:56.006Z,22.43
2022-11-01T05:27:49.543Z,22.40
2022-11-01T05:28:43.103Z,22.46
2022-11-01T05:29:36.617Z,22.40
2022-11-01T05:30:30.209Z,22.44
2022-11-01T05:31:23.706Z,22.41
2022-11-01T05:32:17.234Z,22.43
2022-11-01T05:33:10.769Z,22.53
2022-11-01T05:34:04.297Z,22.43
2022-11-01T05:34:57.822Z,22.51
2022-11-01T05:35:51.357Z,22.43
2022-11-01T05:36:44.896Z,22.44
2022-11-01T05:37:39.014Z,22.43
2022-11-01T05:38:32.573Z,22.43
2022-11-01T05:39:26.078Z,22.44
2022-11-01T05:40:19.607Z,22.40
2022-11-01T05:42:06.691Z,22.43
2022-11-01T05:43:00.550Z,22.48
2022-11-01T05:43:53.744Z,22.41
2022-11-01T05:44:47.269Z,22.41
2022-11-01T05:45:40.823Z,22.43
2022-11-01T05:46:34.328Z,22.40
2022-11-01T05:47:27.881Z,22.38
2022-11-01T05:48:21.410Z,22.38
2022-11-01T05:49:14.938Z,22.41
2022-11-01T05:50:08.458Z,22.44
2022-11-01T05:51:02.012Z,22.40
2022-11-01T05:51:55.547Z,22.44
2022-11-01T05:52:49.094Z,22.43
2022-11-01T05:53:42.638Z,22.44
2022-11-01T05:54:36.172Z,22.46
2022-11-01T05:55:29.700Z,22.48
2022-11-01T05:56:23.233Z,22.41
2022-11-01T05:57:16.770Z,22.38
2022-11-01T05:58:10.299Z,22.40
2022-11-01T05:59:03.847Z,22.43
2022-11-01T05:59:57.374Z,22.38
2022-11-01T06:00:50.911Z,22.44
2022-11-01T06:01:44.510Z,22.41
2022-11-01T06:02:38.099Z,22.43
2022-11-01T06:03:31.491Z,22.48
2022-11-01T06:04:25.025Z,22.38
2022-11-01T06:05:18.584Z,22.37
2022-11-01T06:06:12.121Z,22.40
2022-11-01T06:07:05.656Z,22.44
2022-11-01T06:07:59.186Z,22.40
2022-11-01T06:08:52.713Z,22.40
2022-11-01T06:09:46.258Z,22.43
2022-11-01T06:10:39.786Z,22.40
2022-11-01T06:11:35.655Z,22.46
2022-11-01T06:12:26.848Z,22.44
2022-11-01T06:13:20.378Z,22.41
2022-11-01T06:14:13.903Z,22.41
2022-11-01T06:15:07.453Z,22.41
2022-11-01T06:16:01.004Z,22.41
2022-11-01T06:16:54.521Z,22.41
2022-11-01T06:17:48.051Z,22.44
2022-11-01T06:18:41.593Z,22.38
2022-11-01T06:19:35.149Z,22.44
2022-11-01T06:20:28.677Z,22.46
2022-11-01T06:21:26.077Z,22.37
2022-11-01T06:22:15.770Z,22.44
2022-11-01T06:23:09.290Z,22.43
2022-11-01T06:24:02.809Z,22.40
2022-11-01T06:24:56.340Z,22.44
2022-11-01T06:25:49.864Z,22.40
2022-11-01T06:26:43.408Z,22.38
2022-11-01T06:27:36.935Z,22.44
2022-11-01T06:28:30.464Z,22.44
2022-11-01T06:29:23.989Z,22.41
2022-11-01T06:30:17.520Z,22.36
2022-11-01T06:31:11.089Z,22.51
2022-11-01T06:32:04.590Z,22.40
2022-11-01T06:32:58.117Z,22.51
2022-11-01T06:33:51.649Z,22.43
2022-11-01T06:34:45.194Z,22.43
2022-11-01T06:35:38.707Z,22.43
2022-11-01T06:36:32.243Z,22.52
2022-11-01T06:37:25.769Z,22.41
2022-11-01T06:38:19.291Z,22.49
2022-11-01T06:39:12.820Z,22.40
2022-11-01T06:40:06.353Z,22.34
2022-11-01T06:40:59.871Z,22.43
2022-11-01T06:41:53.402Z,22.37
2022-11-01T06:42:47.192Z,22.38
2022-11-01T06:43:40.468Z,22.49
2022-11-01T06:44:33.986Z,22.41
2022-11-01T06:45:27.513Z,22.51
2022-11-01T06:46:21.050Z,22.44
2022-11-01T06:47:14.569Z,22.44
2022-11-01T06:48:08.091Z,22.48
2022-11-01T06:49:01.622Z,22.41
2022-11-01T06:49:55.157Z,22.56
2022-11-01T06:50:48.682Z,22.56
2022-11-01T06:51:42.220Z,22.40
2022-11-01T06:52:35.754Z,22.49
2022-11-01T06:53:29.315Z,22.41
2022-11-01T06:54:22.854Z,22.43
2022-11-01T06:55:16.398Z,22.41
2022-11-01T06:56:09.939Z,22.44
2022-11-01T06:57:03.462Z,22.49
2022-11-01T06:58:07.262Z,22.48
2022-11-01T06:59:00.784Z,22.46
2022-11-01T06:59:54.314Z,22.53
2022-11-01T07:00:47.906Z,22.46
2022-11-01T07:01:41.611Z,22.55
2022-11-01T07:02:35.037Z,22.46
2022-11-01T07:03:28.423Z,22.51
2022-11-01T07:04:21.964Z,22.43
2022-11-01T07:05:15.488Z,22.43
2022-11-01T07:06:09.018Z,22.49
2022-11-01T07:07:02.545Z,22.49
2022-11-01T07:07:56.081Z,22.46
2022-11-01T07:08:49.627Z,22.44
2022-11-01T07:09:43.151Z,22.41
2022-11-01T07:10:36.682Z,22.55
2022-11-01T07:11:31.730Z,22.43
2022-11-01T07:12:23.738Z,22.41
2022-11-01T07:13:17.767Z,22.40
2022-11-01T07:14:11.303Z,22.44
2022-11-01T07:15:04.841Z,22.44
2022-11-01T07:15:58.368Z,22.43
2022-11-01T07:16:51.918Z,22.46
2022-11-01T07:17:45.426Z,22.49
2022-11-01T07:18:38.967Z,22.41
2022-11-01T07:19:32.496Z,22.49
2022-11-01T07:20:26.029Z,22.49
2022-11-01T07:21:19.555Z,22.48
2022-11-01T07:22:13.089Z,22.51
2022-11-01T07:23:06.897Z,22.38
2022-11-01T07:24:00.138Z,22.46
2022-11-01T07:24:53.661Z,22.43
2022-11-01T07:25:47.193Z,22.51
2022-11-01T07:26:40.710Z,22.38
2022-11-01T07:27:34.235Z,22.38
2022-11-01T07:28:27.766Z,22.51
2022-11-01T07:29:21.891Z,22.44
2022-11-01T07:30:16.024Z,22.43
2022-11-01T07:31:09.580Z,22.44
2022-11-01T07:32:03.147Z,22.41
2022-11-01T07:32:56.655Z,22.43
2022-11-01T07:33:50.181Z,22.43
2022-11-01T07:34:43.711Z,22.43
2022-11-01T07:35:37.248Z,22.41
2022-11-01T07:36:30.785Z,22.41
2022-11-01T07:37:24.359Z,22.46
2022-11-01T07:38:09.867Z,22.43
2022-11-01T07:39:01.499Z,22.38
2022-11-01T07:39:55.025Z,22.43
2022-11-01T07:40:48.555Z,22.41
2022-11-01T07:41:42.098Z,22.40
2022-11-01T07:42:36.135Z,22.55
2022-11-01T07:43:29.658Z,22.44
2022-11-01T07:44:23.184Z,22.40
2022-11-01T07:45:16.708Z,22.41
2022-11-01T07:46:10.235Z,22.49
2022-11-01T07:47:03.776Z,22.41
2022-11-01T07:47:57.321Z,22.43
2022-11-01T07:48:40.967Z,22.55
2022-11-01T07:49:34.504Z,22.43
2022-11-01T07:50:28.030Z,22.41
2022-11-01T07:51:21.564Z,22.56
2022-11-01T07:52:25.356Z,22.48
2022-11-01T07:53:18.883Z,22.53
2022-11-01T07:54:12.410Z,22.52
2022-11-01T07:54:56.073Z,22.52
2022-11-01T07:55:49.607Z,22.48
2022-11-01T07:56:43.129Z,22.43
2022-11-01T07:57:36.663Z,22.51
2022-11-01T07:58:30.196Z,22.49
2022-11-01T07:59:23.724Z,22.56
2022-11-01T08:00:17.262Z,22.51
2022-11-01T08:01:10.915Z,22.44
2022-11-01T08:02:07.842Z,22.49
2022-11-01T08:03:08.155Z,22.49
2022-11-01T08:04:01.660Z,22.48
2022-11-01T08:04:45.310Z,22.44
2022-11-01T08:05:38.836Z,22.48
2022-11-01T08:06:32.379Z,22.53
2022-11-01T08:07:26.498Z,22.49
2022-11-01T08:08:20.051Z,22.55
2022-11-01T08:09:13.572Z,22.55
2022-11-01T08:10:07.092Z,22.52
2022-11-01T08:11:00.630Z,22.52
2022-11-01T08:11:54.163Z,22.55
2022-11-01T08:12:47.688Z,22.58
2022-11-01T08:13:41.212Z,22.55
2022-11-01T08:14:34.748Z,22.56
2022-11-01T08:15:28.282Z,22.53
2022-11-01T08:16:32.061Z,22.56
2022-11-01T08:17:25.608Z,22.53
2022-11-01T08:18:19.160Z,22.62
2022-11-01T08:19:12.681Z,22.62
2022-11-01T08:20:06.203Z,22.58
2022-11-01T08:20:59.732Z,22.55
2022-11-01T08:21:53.268Z,22.62
2022-11-01T08:23:40.411Z,22.55
2022-11-01T08:24:33.936Z,22.58
2022-11-01T08:25:27.462Z,22.59
2022-11-01T08:26:11.114Z,22.58
2022-11-01T08:27:04.652Z,22.61
2022-11-01T08:27:58.189Z,22.59
2022-11-01T08:28:41.851Z,22.64
2022-11-01T08:29:35.392Z,22.58
2022-11-01T08:30:28.925Z,22.59
2022-11-01T08:31:22.465Z,22.66
2022-11-01T08:32:16.002Z,22.66
2022-11-01T08:33:09.566Z,22.62
2022-11-01T08:34:16.917Z,22.71
2022-11-01T08:35:06.894Z,22.64
2022-11-01T08:35:51.025Z,22.67
2022-11-01T08:36:44.100Z,22.71
2022-11-01T08:37:37.627Z,22.67
2022-11-01T08:38:31.171Z,22.68
2022-11-01T08:39:24.710Z,22.74
2022-11-01T08:40:18.241Z,22.70
2022-11-01T08:41:11.762Z,22.66
2022-11-01T08:42:05.286Z,22.73
2022-11-01T08:42:58.840Z,22.76
2022-11-01T08:43:52.359Z,22.70
2022-11-01T08:44:45.891Z,22.77
2022-11-01T08:45:39.426Z,22.67
2022-11-01T08:46:32.957Z,22.67
2022-11-01T08:47:26.480Z,22.70
2022-11-01T08:48:20.014Z,22.67
2022-11-01T08:49:13.538Z,22.68
2022-11-01T08:50:10.159Z,22.74
2022-11-01T08:51:00.612Z,22.66
2022-11-01T08:51:54.143Z,22.68
2022-11-01T08:52:47.666Z,22.70
2022-11-01T08:53:41.198Z,22.68
2022-11-01T08:54:34.744Z,22.70
2022-11-01T08:55:28.294Z,22.66
2022-11-01T08:56:21.796Z,22.68
2022-11-01T08:57:15.319Z,22.76
2022-11-01T08:58:08.851Z,22.66
2022-11-01T08:59:02.377Z,22.70
2022-11-01T08:59:55.902Z,22.77
2022-11-01T09:00:49.513Z,22.71
2022-11-01T09:01:43.128Z,22.66
2022-11-01T09:02:36.543Z,22.77
2022-11-01T09:03:30.016Z,22.68
2022-11-01T09:04:13.671Z,22.73
2022-11-01T09:05:07.202Z,22.77
2022-11-01T09:06:00.759Z,22.71
2022-11-01T09:06:54.262Z,22.73
2022-11-01T09:07:47.786Z,22.74
2022-11-01T09:08:41.318Z,22.68
2022-11-01T09:09:34.837Z,22.66
2022-11-01T09:10:28.376Z,22.68
2022-11-01T09:11:21.908Z,22.70
2022-11-01T09:12:16.011Z,22.71
2022-11-01T09:12:59.388Z,22.68
2022-11-01T09:13:52.632Z,22.66
2022-11-01T09:14:46.159Z,22.74
2022-11-01T09:15:29.819Z,22.74
2022-11-01T09:16:23.342Z,22.71
2022-11-01T09:17:16.888Z,22.74
2022-11-01T09:18:10.407Z,22.73
2022-11-01T09:19:03.929Z,22.77
2022-11-01T09:19:57.459Z,22.78
2022-11-01T09:20:50.989Z,22.80
2022-11-01T09:21:54.794Z,22.78
2022-11-01T09:22:48.325Z,22.85
2022-11-01T09:23:41.851Z,22.83
2022-11-01T09:24:35.389Z,22.83
2022-11-01T09:25:28.931Z,22.85
2022-11-01T09:26:12.618Z,22.83
2022-11-01T09:27:06.135Z,22.77
2022-11-01T09:27:59.675Z,22.76
2022-11-01T09:28:53.199Z,22.77
2022-11-01T09:29:49.463Z,22.73
2022-11-01T09:30:49.552Z,22.71
2022-11-01T09:31:33.815Z,22.74
2022-11-01T09:32:27.356Z,22.77
2022-11-01T09:33:20.953Z,22.76
2022-11-01T09:34:14.473Z,22.83
2022-11-01T09:35:08.002Z,22.83
2022-11-01T09:36:01.540Z,22.81
2022-11-01T09:36:55.066Z,22.85
2022-11-01T09:37:48.621Z,22.86
2022-11-01T09:38:42.167Z,22.81
2022-11-01T09:39:35.693Z,22.86
2022-11-01T09:40:29.220Z,22.88
2022-11-01T09:41:22.765Z,22.86
2022-11-01T09:42:16.297Z,22.88
2022-11-01T09:43:09.840Z,22.86
2022-11-01T09:43:53.486Z,22.83
2022-11-01T09:44:47.011Z,22.95
2022-11-01T09:45:30.692Z,23.04
2022-11-01T09:46:24.245Z,23.07
2022-11-01T09:47:17.842Z,22.96
2022-11-01T09:48:11.368Z,22.93
2022-11-01T09:49:04.936Z,22.98
2022-11-01T09:49:58.474Z,22.92
2022-11-01T09:50:52.017Z,22.93
2022-11-01T09:51:45.734Z,22.88
2022-11-01T09:52:39.375Z,22.80
2022-11-01T09:53:32.943Z,22.89
2022-11-01T09:54:26.480Z,22.85
2022-11-01T09:55:20.047Z,22.83
2022-11-01T09:56:13.583Z,22.83
2022-11-01T09:57:07.117Z,22.78
2022-11-01T09:58:01.099Z,22.76
2022-11-01T09:58:54.200Z,22.76
2022-11-01T09:59:47.776Z,22.71
2022-11-01T10:00:41.384Z,22.76
2022-11-01T10:01:34.952Z,22.68
2022-11-01T10:02:28.369Z,22.70
2022-11-01T10:03:28.371Z,22.68
2022-11-01T10:04:21.901Z,22.67
2022-11-01T10:05:18.668Z,22.67
2022-11-01T10:06:08.974Z,22.67
2022-11-01T10:07:02.509Z,22.71
2022-11-01T10:08:06.315Z,22.76
2022-11-01T10:08:59.875Z,22.66
2022-11-01T10:09:53.394Z,22.66
2022-11-01T10:10:46.919Z,22.68
2022-11-01T10:11:40.446Z,22.70
2022-11-01T10:12:33.977Z,22.68
2022-11-01T10:13:27.512Z,22.67
2022-11-01T10:14:21.050Z,22.68
2022-11-01T10:15:14.578Z,22.70
2022-11-01T10:16:08.106Z,22.62
2022-11-01T10:17:01.646Z,22.66
2022-11-01T10:17:55.201Z,22.68
2022-11-01T10:18:48.724Z,22.66
2022-11-01T10:19:42.258Z,22.74
2022-11-01T10:20:35.813Z,22.68
2022-11-01T10:21:29.933Z,22.73
2022-11-01T10:22:22.903Z,22.67
2022-11-01T10:23:16.463Z,22.73
2022-11-01T10:24:10.049Z,22.66
2022-11-01T10:25:03.569Z,22.67
2022-11-01T10:25:57.125Z,22.68
2022-11-01T10:26:50.660Z,22.66
2022-11-01T10:27:44.211Z,22.77
2022-11-01T10:28:37.755Z,22.71
2022-11-01T10:29:31.328Z,22.67
2022-11-01T10:30:24.867Z,22.70
2022-11-01T10:31:18.414Z,22.77
2022-11-01T10:32:11.945Z,22.67
2022-11-01T10:33:06.183Z,22.68
2022-11-01T10:33:59.510Z,22.70
2022-11-01T10:34:53.536Z,22.68
2022-11-01T10:35:47.064Z,22.66
2022-11-01T10:36:40.609Z,22.71
2022-11-01T10:37:34.627Z,22.70
2022-11-01T10:38:49.582Z,22.67
2022-11-01T10:40:15.218Z,22.68
2022-11-01T10:41:08.739Z,22.74
2022-11-01T10:42:02.279Z,22.67
2022-11-01T10:42:55.822Z,22.70
2022-11-01T10:43:49.344Z,22.71
2022-11-01T10:44:32.995Z,22.67
2022-11-01T10:45:26.554Z,22.70
2022-11-01T10:46:20.098Z,22.70
2022-11-01T10:47:13.636Z,22.68
2022-11-01T10:48:07.161Z,22.67
2022-11-01T10:49:00.718Z,22.70
2022-11-01T10:50:10.079Z,22.73
2022-11-01T10:50:48.334Z,22.70
2022-11-01T10:51:52.159Z,22.66
2022-11-01T10:52:45.705Z,22.66
2022-11-01T10:53:39.257Z,22.68
2022-11-01T10:54:32.809Z,22.68
2022-11-01T10:55:16.486Z,22.67
2022-11-01T10:56:10.027Z,22.73
2022-11-01T10:57:03.573Z,22.73
2022-11-01T10:57:57.094Z,22.71
2022-11-01T10:58:50.621Z,22.76
2022-11-01T10:59:44.152Z,22.86
2022-11-01T11:00:37.723Z,22.81
2022-11-01T11:01:31.351Z,22.83
2022-11-01T11:02:24.824Z,22.89
2022-11-01T11:03:18.277Z,22.93
2022-11-01T11:04:01.937Z,22.95
2022-11-01T11:04:45.643Z,22.92
2022-11-01T11:05:39.165Z,22.96
2022-11-01T11:06:32.696Z,22.96
2022-11-01T11:07:26.251Z,22.91
2022-11-01T11:08:19.784Z,22.89
2022-11-01T11:09:13.326Z,22.91
2022-11-01T11:10:07.407Z,22.91
2022-11-01T11:11:00.884Z,22.93
2022-11-01T11:11:54.917Z,22.99
2022-11-01T11:12:48.448Z,22.89
2022-11-01T11:13:42.002Z,22.91
2022-11-01T11:14:35.581Z,22.92
2022-11-01T11:15:33.107Z,22.91
2022-11-01T11:16:22.685Z,22.91
2022-11-01T11:17:16.224Z,22.91
2022-11-01T11:18:10.253Z,22.93
2022-11-01T11:19:03.797Z,22.81
2022-11-01T11:19:57.324Z,22.86
2022-11-01T11:20:51.042Z,22.85
2022-11-01T11:21:45.090Z,22.91
2022-11-01T11:22:38.620Z,22.85
2022-11-01T11:23:32.156Z,22.83
2022-11-01T11:24:15.834Z,22.71
2022-11-01T11:25:09.383Z,22.71
2022-11-01T11:26:02.899Z,22.73
2022-11-01T11:26:56.435Z,22.74
2022-11-01T11:27:50.470Z,22.76
2022-11-01T11:28:34.132Z,22.71
2022-11-01T11:29:27.704Z,22.70
2022-11-01T11:30:11.339Z,22.73
2022-11-01T11:31:04.895Z,22.77
2022-11-01T11:31:58.897Z,22.76
2022-11-01T11:32:52.458Z,22.76
2022-11-01T11:33:45.993Z,22.74
2022-11-01T11:34:39.531Z,22.76